Time;durP1;ratioP1;P1;durP2;ratioP2;P2;SDS_P1;SDS_P2;PMS_P1;PMS_P2;Temp;Humidity;BMP_temperature;BMP_pressure;BME280_temperature;BME280_humidity;BME280_pressure;Samples;Min_cycle;Max_cycle;Signal;HPM_P1;HPM_P2
2023/12/07 00:00:36;;;;;;;7.37;4.40;;;;;;;;;;5015575;28;20210;-29
2023/12/07 00:03:06;;;;;;;6.13;4.00;;;;;;;;;;5003578;28;20202;-26
2023/12/07 00:05:33;;;;;;;4.97;4.07;;;;;;;;;;5018826;28;20227;-28
2023/12/07 00:08:01;;;;;;;6.90;5.27;;;;;;;;;;5001814;28;20577;-28
2023/12/07 00:10:28;;;;;;;8.53;5.10;;;;;;;;;;5023444;28;20211;-27
2023/12/07 00:12:55;;;;;;;6.20;4.57;;;;;;;;;;5010392;28;20220;-27
2023/12/07 00:15:24;;;;;;;5.73;4.67;;;;;;;;;;5026754;28;20226;-26
2023/12/07 00:17:51;;;;;;;5.47;4.53;;;;;;;;;;5006070;28;20203;-28
2023/12/07 00:20:18;;;;;;;5.03;4.50;;;;;;;;;;5021536;28;20256;-25
2023/12/07 00:22:45;;;;;;;8.00;5.33;;;;;;;;;;4997422;28;20207;-26
2023/12/07 00:25:12;;;;;;;7.90;4.80;;;;;;;;;;5024535;28;20250;-26
2023/12/07 00:27:40;;;;;;;7.77;4.40;;;;;;;;;;5021004;28;20215;-27
2023/12/07 00:30:08;;;;;;;6.63;4.57;;;;;;;;;;5013349;28;20208;-26
2023/12/07 00:32:37;;;;;;;6.53;5.13;;;;;;;;;;5010403;28;20227;-24
2023/12/07 00:35:05;;;;;;;7.07;5.43;;;;;;;;;;5016702;28;20226;-28
2023/12/07 00:37:32;;;;;;;8.30;4.50;;;;;;;;;;5004400;28;20219;-25
2023/12/07 00:39:59;;;;;;;7.03;4.53;;;;;;;;;;5019124;28;20202;-26
2023/12/07 00:42:26;;;;;;;6.40;5.67;;;;;;;;;;5029680;28;20423;-25
2023/12/07 00:44:53;;;;;;;5.80;4.50;;;;;;;;;;4996279;28;20224;-25
2023/12/07 00:47:20;;;;;;;10.30;9.07;;;;;;;;;;5018305;28;20217;-27
2023/12/07 00:49:49;;;;;;;6.87;5.67;;;;;;;;;;5028627;28;20216;-30
2023/12/07 00:52:16;;;;;;;6.40;5.43;;;;;;;;;;5007114;28;20223;-26
2023/12/07 00:54:44;;;;;;;6.33;4.53;;;;;;;;;;5019201;28;20230;-27
2023/12/07 00:57:11;;;;;;;5.57;4.67;;;;;;;;;;5021246;28;20210;-26
2023/12/07 00:59:38;;;;;;;6.13;4.80;;;;;;;;;;5013518;28;20297;-25
2023/12/07 01:02:05;;;;;;;5.83;4.80;;;;;;;;;;5022061;28;20418;-25
2023/12/07 01:04:33;;;;;;;6.43;5.23;;;;;;;;;;5017019;28;20230;-25
2023/12/07 01:07:01;;;;;;;6.60;4.87;;;;;;;;;;4997705;28;20210;-25
2023/12/07 01:09:28;;;;;;;7.27;4.93;;;;;;;;;;5004195;28;20290;-27
2023/12/07 01:11:57;;;;;;;7.17;5.27;;;;;;;;;;5017490;28;20238;-26
2023/12/07 01:14:25;;;;;;;7.40;5.23;;;;;;;;;;5017019;28;20305;-26
2023/12/07 01:16:52;;;;;;;6.30;4.77;;;;;;;;;;4999963;28;20203;-26
2023/12/07 01:19:19;;;;;;;6.40;4.67;;;;;;;;;;5008580;28;20214;-25
2023/12/07 01:21:46;;;;;;;6.10;4.43;;;;;;;;;;5004897;28;20493;-25
2023/12/07 01:24:15;;;;;;;6.07;4.27;;;;;;;;;;5002627;28;20273;-27
2023/12/07 01:26:42;;;;;;;4.70;4.20;;;;;;;;;;5011011;28;20211;-28
2023/12/07 01:29:10;;;;;;;5.37;4.63;;;;;;;;;;5019215;28;20215;-29
2023/12/07 01:31:37;;;;;;;7.20;4.83;;;;;;;;;;5002159;28;20234;-28
2023/12/07 01:34:04;;;;;;;9.20;4.80;;;;;;;;;;5024074;28;20222;-26
2023/12/07 01:36:31;;;;;;;6.77;4.83;;;;;;;;;;5004239;28;20214;-27
2023/12/07 01:38:58;;;;;;;7.10;4.83;;;;;;;;;;4998888;28;20198;-30
2023/12/07 01:41:27;;;;;;;6.63;4.70;;;;;;;;;;5020457;28;20205;-29
2023/12/07 01:43:54;;;;;;;5.13;4.23;;;;;;;;;;5027638;28;20229;-27
2023/12/07 01:46:21;;;;;;;7.13;4.60;;;;;;;;;;5014001;28;20215;-30
2023/12/07 01:48:49;;;;;;;6.17;5.23;;;;;;;;;;5023233;28;20206;-27
2023/12/07 01:51:16;;;;;;;5.40;4.83;;;;;;;;;;5012500;28;20227;-26
2023/12/07 01:53:43;;;;;;;6.77;5.17;;;;;;;;;;5001394;28;20248;-26
2023/12/07 01:56:12;;;;;;;5.97;4.90;;;;;;;;;;5017451;28;20218;-26
2023/12/07 01:58:40;;;;;;;6.93;4.67;;;;;;;;;;5017885;28;20744;-27
2023/12/07 02:01:09;;;;;;;6.70;4.87;;;;;;;;;;4999104;28;20199;-27
2023/12/07 02:03:36;;;;;;;5.50;4.47;;;;;;;;;;5004051;28;20227;-27
2023/12/07 02:06:04;;;;;;;8.30;5.30;;;;;;;;;;5007970;28;20211;-26
2023/12/07 02:08:31;;;;;;;6.20;4.50;;;;;;;;;;4994440;28;20204;-26
2023/12/07 02:10:58;;;;;;;6.57;4.20;;;;;;;;;;5018146;28;20211;-26
2023/12/07 02:13:25;;;;;;;5.80;4.30;;;;;;;;;;5016657;28;20222;-27
2023/12/07 02:15:55;;;;;;;6.97;5.07;;;;;;;;;;5011151;28;20207;-27
2023/12/07 02:18:26;;;;;;;6.40;5.43;;;;;;;;;;5011585;28;20209;-26
2023/12/07 02:20:56;;;;;;;6.43;4.80;;;;;;;;;;5011694;28;20887;-27
2023/12/07 02:23:25;;;;;;;7.17;4.97;;;;;;;;;;4990449;28;20192;-25
2023/12/07 02:25:53;;;;;;;5.80;5.07;;;;;;;;;;5025377;28;20210;-29
2023/12/07 02:28:21;;;;;;;5.07;4.07;;;;;;;;;;5022114;28;20203;-27
2023/12/07 02:30:48;;;;;;;5.13;4.63;;;;;;;;;;5002763;28;20218;-26
2023/12/07 02:33:15;;;;;;;6.40;4.67;;;;;;;;;;5021548;28;20589;-26
2023/12/07 02:35:43;;;;;;;5.27;4.77;;;;;;;;;;5014785;28;20231;-25
2023/12/07 02:38:10;;;;;;;8.07;4.70;;;;;;;;;;5002005;28;20203;-28
2023/12/07 02:40:38;;;;;;;5.67;4.40;;;;;;;;;;5024629;28;20209;-28
2023/12/07 02:43:06;;;;;;;7.47;4.73;;;;;;;;;;5023931;28;20207;-28
2023/12/07 02:45:34;;;;;;;5.43;4.53;;;;;;;;;;4999747;28;20242;-26
2023/12/07 02:48:02;;;;;;;7.07;4.23;;;;;;;;;;4997397;28;20211;-25
2023/12/07 02:50:29;;;;;;;7.10;4.90;;;;;;;;;;5028324;28;20211;-25
2023/12/07 02:52:56;;;;;;;7.33;4.23;;;;;;;;;;5003807;28;20227;-26
2023/12/07 02:55:23;;;;;;;8.97;4.50;;;;;;;;;;5011733;28;20231;-26
2023/12/07 02:57:51;;;;;;;6.77;4.43;;;;;;;;;;5028361;28;20210;-25
2023/12/07 03:00:18;;;;;;;7.27;4.87;;;;;;;;;;5011647;28;20208;-29
2023/12/07 03:02:47;;;;;;;6.00;4.23;;;;;;;;;;5009433;28;20211;-27
2023/12/07 03:05:15;;;;;;;7.63;4.63;;;;;;;;;;5013144;28;20219;-28
2023/12/07 03:07:42;;;;;;;5.37;4.37;;;;;;;;;;5007566;28;20207;-30
2023/12/07 03:10:09;;;;;;;6.73;4.47;;;;;;;;;;5024823;28;20212;-25
2023/12/07 03:12:36;;;;;;;8.73;5.50;;;;;;;;;;5023204;28;20281;-28
2023/12/07 03:15:04;;;;;;;5.87;4.63;;;;;;;;;;5011582;28;20227;-27
2023/12/07 03:17:31;;;;;;;8.37;5.23;;;;;;;;;;5006537;28;20212;-26
2023/12/07 03:20:00;;;;;;;6.50;5.20;;;;;;;;;;5011103;28;20347;-27
2023/12/07 03:22:27;;;;;;;6.63;5.00;;;;;;;;;;5010159;28;20646;-26
2023/12/07 03:24:54;;;;;;;6.40;4.50;;;;;;;;;;5020213;28;20230;-25
2023/12/07 03:27:21;;;;;;;5.83;4.37;;;;;;;;;;5025115;28;20202;-28
2023/12/07 03:29:48;;;;;;;4.40;3.90;;;;;;;;;;5029897;28;20214;-26
2023/12/07 03:32:16;;;;;;;9.13;5.83;;;;;;;;;;5009418;28;20227;-26
2023/12/07 03:34:43;;;;;;;8.13;5.07;;;;;;;;;;5025309;28;20234;-27
2023/12/07 03:37:11;;;;;;;7.93;5.03;;;;;;;;;;4999724;28;20208;-26
2023/12/07 03:39:38;;;;;;;8.00;4.80;;;;;;;;;;5005248;28;20215;-31
2023/12/07 03:42:06;;;;;;;7.77;5.10;;;;;;;;;;5030431;28;20209;-26
2023/12/07 03:44:33;;;;;;;7.10;4.53;;;;;;;;;;5006499;28;20234;-29
2023/12/07 03:47:00;;;;;;;5.80;4.43;;;;;;;;;;5011618;28;20221;-25
2023/12/07 03:49:28;;;;;;;6.10;4.67;;;;;;;;;;5010054;28;20215;-27
2023/12/07 03:51:57;;;;;;;7.57;5.37;;;;;;;;;;5005509;28;20231;-27
2023/12/07 03:54:27;;;;;;;5.33;4.60;;;;;;;;;;5009294;28;20234;-26
2023/12/07 03:56:54;;;;;;;5.83;4.73;;;;;;;;;;5011453;28;20213;-26
2023/12/07 03:59:21;;;;;;;6.47;4.90;;;;;;;;;;5013440;28;20579;-27
2023/12/07 04:01:48;;;;;;;5.90;4.20;;;;;;;;;;5002164;28;20219;-26
2023/12/07 04:04:15;;;;;;;6.63;4.83;;;;;;;;;;5014672;28;20225;-27
2023/12/07 04:06:42;;;;;;;6.63;5.03;;;;;;;;;;5004957;28;20204;-24
2023/12/07 04:09:09;;;;;;;11.07;5.00;;;;;;;;;;5003201;28;20214;-25
2023/12/07 04:11:38;;;;;;;7.13;5.10;;;;;;;;;;5011059;28;20302;-26
2023/12/07 04:14:05;;;;;;;6.27;4.40;;;;;;;;;;5028693;28;20227;-25
2023/12/07 04:16:32;;;;;;;7.90;5.13;;;;;;;;;;5020018;28;20260;-25
2023/12/07 04:18:59;;;;;;;7.40;4.43;;;;;;;;;;4999229;28;20209;-26
2023/12/07 04:21:26;;;;;;;6.10;4.73;;;;;;;;;;5005449;28;20207;-29
2023/12/07 04:23:53;;;;;;;6.27;4.87;;;;;;;;;;5010476;28;20230;-25
2023/12/07 04:26:20;;;;;;;6.10;4.77;;;;;;;;;;5031113;28;20206;-27
2023/12/07 04:28:49;;;;;;;7.77;5.00;;;;;;;;;;5028824;28;20221;-27
2023/12/07 04:31:16;;;;;;;8.23;5.37;;;;;;;;;;5003039;28;20237;-27
2023/12/07 04:33:43;;;;;;;6.80;5.23;;;;;;;;;;5014099;28;20238;-26
2023/12/07 04:36:10;;;;;;;6.37;4.43;;;;;;;;;;4997689;28;20246;-26
2023/12/07 04:38:37;;;;;;;7.33;4.20;;;;;;;;;;5001728;28;20214;-27
2023/12/07 04:41:05;;;;;;;6.70;4.33;;;;;;;;;;5012602;28;20211;-26
2023/12/07 04:43:32;;;;;;;6.87;4.93;;;;;;;;;;5019223;28;20234;-26
2023/12/07 04:46:00;;;;;;;6.30;5.20;;;;;;;;;;5000509;28;20239;-25
2023/12/07 04:48:27;;;;;;;6.30;5.20;;;;;;;;;;4998163;28;20218;-24
2023/12/07 04:50:54;;;;;;;7.73;5.03;;;;;;;;;;5007825;28;20255;-27
2023/12/07 04:53:22;;;;;;;6.40;5.07;;;;;;;;;;5001267;28;20223;-29
2023/12/07 04:55:50;;;;;;;5.63;4.47;;;;;;;;;;5017168;28;20208;-28
2023/12/07 04:58:17;;;;;;;7.87;5.00;;;;;;;;;;5016370;28;20294;-27
2023/12/07 05:00:44;;;;;;;6.93;5.53;;;;;;;;;;5004848;28;20208;-25
2023/12/07 05:03:12;;;;;;;6.63;4.60;;;;;;;;;;5007583;28;20207;-24
2023/12/07 05:05:39;;;;;;;6.23;5.47;;;;;;;;;;5016709;28;20239;-28
2023/12/07 05:08:07;;;;;;;10.57;5.37;;;;;;;;;;4995146;28;21297;-25
2023/12/07 05:10:34;;;;;;;6.23;4.90;;;;;;;;;;5011166;28;20207;-27
2023/12/07 05:13:01;;;;;;;6.70;4.87;;;;;;;;;;5017163;28;20248;-27
2023/12/07 05:15:28;;;;;;;7.30;4.60;;;;;;;;;;5005814;28;20233;-27
2023/12/07 05:17:55;;;;;;;7.17;5.57;;;;;;;;;;5001993;28;20247;-28
2023/12/07 05:20:25;;;;;;;7.27;5.27;;;;;;;;;;5010494;28;20607;-27
2023/12/07 05:22:52;;;;;;;6.33;4.93;;;;;;;;;;4994459;28;20646;-27
2023/12/07 05:25:19;;;;;;;4.93;4.33;;;;;;;;;;5016722;28;20317;-28
2023/12/07 05:27:47;;;;;;;6.90;5.10;;;;;;;;;;5025091;28;20212;-26
2023/12/07 05:30:14;;;;;;;8.43;5.70;;;;;;;;;;5000312;28;20207;-26
2023/12/07 05:32:41;;;;;;;8.00;6.03;;;;;;;;;;4995105;28;20231;-27
2023/12/07 05:35:08;;;;;;;8.50;5.63;;;;;;;;;;4995681;28;20242;-27
2023/12/07 05:37:37;;;;;;;6.20;4.93;;;;;;;;;;4989615;28;20690;-26
2023/12/07 05:40:05;;;;;;;8.93;5.60;;;;;;;;;;5012348;28;20214;-27
2023/12/07 05:42:33;;;;;;;6.77;5.00;;;;;;;;;;5014159;28;20202;-26
2023/12/07 05:44:59;;;;;;;8.40;6.07;;;;;;;;;;5027580;28;20590;-25
2023/12/07 05:47:26;;;;;;;7.37;5.00;;;;;;;;;;5007347;28;20218;-24
2023/12/07 05:49:53;;;;;;;6.63;5.17;;;;;;;;;;5017873;28;20297;-26
2023/12/07 05:52:20;;;;;;;7.87;6.23;;;;;;;;;;5012268;28;20215;-27
2023/12/07 05:54:49;;;;;;;6.37;4.90;;;;;;;;;;5009559;28;20238;-27
2023/12/07 05:57:16;;;;;;;8.90;5.00;;;;;;;;;;5019746;28;20206;-25
2023/12/07 05:59:44;;;;;;;7.17;5.07;;;;;;;;;;5009115;28;20211;-26
2023/12/07 06:02:11;;;;;;;7.57;6.10;;;;;;;;;;5004895;28;20215;-26
2023/12/07 06:04:38;;;;;;;9.30;6.37;;;;;;;;;;5006433;28;20757;-26
2023/12/07 06:07:05;;;;;;;8.00;5.00;;;;;;;;;;4994281;28;20270;-25
2023/12/07 06:09:33;;;;;;;8.63;5.87;;;;;;;;;;5011396;28;20199;-29
2023/12/07 06:12:01;;;;;;;9.17;6.13;;;;;;;;;;5017160;28;20211;-26
2023/12/07 06:14:28;;;;;;;7.23;5.50;;;;;;;;;;5022413;28;20242;-28
2023/12/07 06:16:56;;;;;;;8.00;5.50;;;;;;;;;;4999480;28;20270;-26
2023/12/07 06:19:23;;;;;;;8.27;5.77;;;;;;;;;;5016242;28;20199;-27
2023/12/07 06:21:50;;;;;;;8.03;5.63;;;;;;;;;;5004132;28;20404;-27
2023/12/07 06:24:17;;;;;;;7.20;5.20;;;;;;;;;;5015597;28;20222;-25
2023/12/07 06:26:44;;;;;;;9.87;5.80;;;;;;;;;;5021195;28;20203;-25
2023/12/07 06:29:12;;;;;;;6.53;4.87;;;;;;;;;;5004168;28;20221;-29
2023/12/07 06:31:44;;;;;;;8.57;6.17;;;;;;;;;;4997250;28;20220;-27
2023/12/07 06:34:11;;;;;;;8.93;6.00;;;;;;;;;;5013721;28;20269;-25
2023/12/07 06:36:38;;;;;;;8.07;5.70;;;;;;;;;;4995396;28;20208;-25
2023/12/07 06:39:05;;;;;;;7.77;5.87;;;;;;;;;;5013177;28;20211;-26
2023/12/07 06:41:33;;;;;;;9.00;6.30;;;;;;;;;;5020964;28;20227;-25
2023/12/07 06:44:00;;;;;;;7.93;5.37;;;;;;;;;;5030101;28;20771;-27
2023/12/07 06:46:28;;;;;;;7.63;5.27;;;;;;;;;;5009444;28;20213;-27
2023/12/07 06:48:55;;;;;;;7.73;5.57;;;;;;;;;;5028005;28;20207;-28
2023/12/07 06:51:22;;;;;;;9.40;6.03;;;;;;;;;;5012267;28;20334;-28
2023/12/07 06:53:50;;;;;;;8.77;5.70;;;;;;;;;;5016485;28;20304;-27
2023/12/07 06:56:17;;;;;;;7.83;5.83;;;;;;;;;;5020927;28;20203;-25
2023/12/07 06:58:44;;;;;;;7.33;5.00;;;;;;;;;;5015391;28;20211;-27
2023/12/07 07:01:12;;;;;;;8.40;5.77;;;;;;;;;;5011935;28;20210;-25
2023/12/07 07:03:41;;;;;;;6.67;5.30;;;;;;;;;;5012018;28;20215;-27
2023/12/07 07:06:08;;;;;;;7.03;5.63;;;;;;;;;;5020397;28;20200;-27
2023/12/07 07:08:35;;;;;;;7.27;5.67;;;;;;;;;;5022420;28;20206;-25
2023/12/07 07:11:03;;;;;;;7.77;6.07;;;;;;;;;;5016961;28;20211;-26
2023/12/07 07:13:30;;;;;;;7.77;5.30;;;;;;;;;;5013264;28;20227;-25
2023/12/07 07:15:57;;;;;;;7.17;5.07;;;;;;;;;;5004154;28;20216;-26
2023/12/07 07:18:28;;;;;;;6.90;5.10;;;;;;;;;;5018805;28;20720;-26
2023/12/07 07:21:04;;;;;;;7.37;5.50;;;;;;;;;;5003039;28;20274;-24
2023/12/07 07:23:32;;;;;;;7.50;5.50;;;;;;;;;;5006906;28;20199;-27
2023/12/07 07:25:59;;;;;;;6.43;5.40;;;;;;;;;;5020222;28;20203;-25
2023/12/07 07:28:58;;;;;;;7.67;5.43;;;;;;;;;;5008509;28;20211;-25
2023/12/07 07:31:25;;;;;;;9.83;5.50;;;;;;;;;;5008975;28;20216;-25
2023/12/07 07:33:52;;;;;;;7.30;5.03;;;;;;;;;;5014282;28;20227;-25
2023/12/07 07:36:20;;;;;;;7.33;5.40;;;;;;;;;;5003147;28;20215;-26
2023/12/07 07:38:48;;;;;;;5.87;5.13;;;;;;;;;;5010140;28;20208;-26
2023/12/07 07:41:17;;;;;;;6.17;5.10;;;;;;;;;;5016447;28;20207;-26
2023/12/07 07:43:44;;;;;;;6.97;5.40;;;;;;;;;;5018887;28;20231;-28
2023/12/07 07:46:12;;;;;;;7.73;5.67;;;;;;;;;;5008330;28;20521;-25
2023/12/07 07:48:39;;;;;;;7.93;6.30;;;;;;;;;;5014386;28;20226;-25
2023/12/07 07:51:06;;;;;;;10.60;5.70;;;;;;;;;;5018571;28;20203;-25
2023/12/07 07:53:43;;;;;;;6.47;5.10;;;;;;;;;;5005062;28;20224;-27
2023/12/07 07:56:10;;;;;;;8.63;6.40;;;;;;;;;;5020247;28;20212;-28
2023/12/07 07:58:37;;;;;;;10.90;7.10;;;;;;;;;;5011039;28;20199;-26
2023/12/07 08:01:04;;;;;;;8.47;5.80;;;;;;;;;;5000418;28;20218;-26
2023/12/07 08:03:32;;;;;;;6.43;5.67;;;;;;;;;;5013035;28;20199;-26
2023/12/07 08:05:59;;;;;;;7.77;6.30;;;;;;;;;;5016307;28;20208;-28
2023/12/07 08:08:26;;;;;;;8.07;5.83;;;;;;;;;;5007831;28;20643;-27
2023/12/07 08:10:55;;;;;;;7.17;5.53;;;;;;;;;;5016100;28;20214;-27
2023/12/07 08:13:22;;;;;;;7.80;6.03;;;;;;;;;;5013624;28;20239;-28
2023/12/07 08:15:49;;;;;;;8.50;5.80;;;;;;;;;;5008913;28;20661;-27
2023/12/07 08:18:16;;;;;;;7.27;5.33;;;;;;;;;;5017063;28;20214;-25
2023/12/07 08:20:44;;;;;;;8.70;5.63;;;;;;;;;;5016515;28;20262;-24
2023/12/07 08:23:11;;;;;;;6.53;5.57;;;;;;;;;;5003830;28;20218;-27
2023/12/07 08:25:40;;;;;;;7.33;5.27;;;;;;;;;;5013605;28;20227;-26
2023/12/07 08:28:09;;;;;;;7.13;5.60;;;;;;;;;;5013577;28;20207;-27
2023/12/07 08:30:36;;;;;;;6.77;5.43;;;;;;;;;;5010314;28;20257;-24
2023/12/07 08:33:03;;;;;;;8.47;5.90;;;;;;;;;;5017225;28;20217;-25
2023/12/07 08:35:30;;;;;;;7.30;6.50;;;;;;;;;;5026471;28;20225;-26
2023/12/07 08:37:58;;;;;;;13.03;8.60;;;;;;;;;;5004245;28;20571;-28
2023/12/07 08:40:25;;;;;;;21.33;15.20;;;;;;;;;;5015443;28;20238;-26
2023/12/07 08:42:52;;;;;;;12.33;10.07;;;;;;;;;;5031938;28;20207;-26
2023/12/07 08:45:20;;;;;;;14.47;13.07;;;;;;;;;;5012418;28;20223;-27
2023/12/07 08:47:47;;;;;;;11.80;8.00;;;;;;;;;;5000398;28;20646;-25
2023/12/07 08:50:15;;;;;;;9.87;7.80;;;;;;;;;;4997067;28;20200;-25
2023/12/07 08:52:42;;;;;;;11.07;9.50;;;;;;;;;;5010762;28;20210;-26
2023/12/07 08:55:09;;;;;;;10.87;7.93;;;;;;;;;;5012386;28;20231;-27
2023/12/07 08:57:37;;;;;;;16.33;14.73;;;;;;;;;;5009799;28;20203;-27
2023/12/07 09:00:04;;;;;;;8.50;6.40;;;;;;;;;;5004592;28;20294;-27
2023/12/07 09:02:33;;;;;;;9.80;8.13;;;;;;;;;;5009082;28;20214;-25
2023/12/07 09:05:00;;;;;;;12.07;9.37;;;;;;;;;;5004961;28;20223;-25
2023/12/07 09:07:27;;;;;;;10.00;7.97;;;;;;;;;;4999307;28;20207;-25
2023/12/07 09:09:54;;;;;;;9.00;7.90;;;;;;;;;;5015211;28;20214;-26
2023/12/07 09:12:21;;;;;;;8.47;7.07;;;;;;;;;;5005515;28;20220;-25
2023/12/07 09:14:48;;;;;;;7.73;6.47;;;;;;;;;;5008669;28;20231;-25
2023/12/07 09:17:16;;;;;;;9.20;7.67;;;;;;;;;;5001172;28;20214;-27
2023/12/07 09:19:46;;;;;;;10.00;7.87;;;;;;;;;;5001605;28;20203;-24
2023/12/07 09:22:15;;;;;;;8.87;7.07;;;;;;;;;;5000676;28;20206;-25
2023/12/07 09:24:43;;;;;;;7.97;6.33;;;;;;;;;;5012782;28;20230;-28
2023/12/07 09:27:10;;;;;;;9.03;7.00;;;;;;;;;;5023868;28;20216;-28
2023/12/07 09:29:38;;;;;;;10.40;7.93;;;;;;;;;;5012337;28;20199;-26
2023/12/07 09:32:05;;;;;;;12.37;8.57;;;;;;;;;;5003136;28;20214;-24
2023/12/07 09:34:32;;;;;;;11.70;7.97;;;;;;;;;;5012070;28;20318;-26
2023/12/07 09:37:08;;;;;;;9.40;7.30;;;;;;;;;;4999467;28;20227;-25
2023/12/07 09:39:35;;;;;;;9.63;7.03;;;;;;;;;;5005091;28;20205;-25
2023/12/07 09:42:03;;;;;;;9.17;6.90;;;;;;;;;;5012930;28;20204;-25
2023/12/07 09:44:30;;;;;;;9.73;7.13;;;;;;;;;;5006071;28;20821;-28
2023/12/07 09:46:57;;;;;;;10.03;7.23;;;;;;;;;;5007648;28;20210;-27
2023/12/07 09:49:25;;;;;;;9.90;7.20;;;;;;;;;;5011757;28;20211;-27
2023/12/07 09:51:52;;;;;;;10.80;6.40;;;;;;;;;;5003812;28;20269;-26
2023/12/07 09:54:22;;;;;;;8.87;7.03;;;;;;;;;;5007863;28;20809;-27
2023/12/07 09:56:51;;;;;;;8.07;6.43;;;;;;;;;;5018514;28;20215;-27
2023/12/07 09:59:18;;;;;;;10.60;6.23;;;;;;;;;;5021142;28;20298;-26
2023/12/07 10:01:45;;;;;;;10.30;7.20;;;;;;;;;;5011909;28;20238;-25
2023/12/07 10:04:20;;;;;;;9.57;7.43;;;;;;;;;;5018138;28;20839;-25
2023/12/07 10:06:47;;;;;;;11.37;7.63;;;;;;;;;;5000035;28;20207;-26
2023/12/07 10:09:14;;;;;;;9.33;7.13;;;;;;;;;;5016610;28;20293;-27
2023/12/07 10:11:44;;;;;;;9.70;7.50;;;;;;;;;;5016094;28;20690;-24
2023/12/07 10:14:11;;;;;;;11.87;7.17;;;;;;;;;;5009090;28;20228;-27
2023/12/07 10:16:38;;;;;;;8.47;6.67;;;;;;;;;;5009880;28;20203;-26
2023/12/07 10:19:17;;;;;;;9.27;7.10;;;;;;;;;;5011839;28;20209;-26
2023/12/07 10:21:44;;;;;;;10.10;6.80;;;;;;;;;;4998373;28;20269;-26
2023/12/07 10:24:11;;;;;;;10.00;7.10;;;;;;;;;;5008730;28;20235;-26
2023/12/07 10:26:39;;;;;;;11.40;7.60;;;;;;;;;;5019861;28;20203;-27
2023/12/07 10:29:08;;;;;;;6.53;5.33;;;;;;;;;;5028896;28;20210;-25
2023/12/07 10:31:35;;;;;;;9.37;7.13;;;;;;;;;;5008042;28;20207;-26
2023/12/07 10:34:02;;;;;;;10.60;7.50;;;;;;;;;;5016642;28;20600;-26
2023/12/07 10:36:33;;;;;;;8.20;6.30;;;;;;;;;;5007366;28;20211;-26
2023/12/07 10:39:00;;;;;;;10.03;7.07;;;;;;;;;;5007323;28;20207;-25
2023/12/07 10:41:27;;;;;;;9.13;7.47;;;;;;;;;;5011673;28;20242;-26
2023/12/07 10:43:55;;;;;;;10.07;8.27;;;;;;;;;;4998465;28;20322;-27
2023/12/07 10:46:24;;;;;;;10.00;6.97;;;;;;;;;;4997716;28;20220;-25
2023/12/07 10:48:53;;;;;;;8.87;7.60;;;;;;;;;;5018154;28;20203;-27
2023/12/07 10:51:24;;;;;;;12.53;8.37;;;;;;;;;;5012048;28;20204;-28
2023/12/07 10:53:53;;;;;;;11.07;7.93;;;;;;;;;;5011682;28;20222;-26
2023/12/07 10:56:27;;;;;;;11.07;8.30;;;;;;;;;;5013417;28;20204;-26
2023/12/07 10:59:04;;;;;;;10.00;7.23;;;;;;;;;;5008975;28;20255;-28
2023/12/07 11:01:33;;;;;;;9.73;7.40;;;;;;;;;;5008066;28;20658;-26
2023/12/07 11:04:00;;;;;;;10.90;7.87;;;;;;;;;;5017056;28;20242;-26
2023/12/07 11:06:27;;;;;;;10.33;8.37;;;;;;;;;;5002216;28;20215;-25
2023/12/07 11:08:57;;;;;;;13.37;8.97;;;;;;;;;;5011073;28;20206;-26
2023/12/07 11:11:26;;;;;;;16.40;10.77;;;;;;;;;;5021831;28;20211;-24
2023/12/07 11:13:55;;;;;;;11.47;8.07;;;;;;;;;;5008649;28;20602;-27
2023/12/07 11:16:30;;;;;;;11.20;7.93;;;;;;;;;;5007695;28;20195;-28
2023/12/07 11:18:59;;;;;;;10.43;6.80;;;;;;;;;;5012303;28;20294;-27
2023/12/07 11:21:26;;;;;;;11.90;7.50;;;;;;;;;;5018453;28;20204;-28
2023/12/07 11:23:54;;;;;;;10.47;7.40;;;;;;;;;;5014228;28;20315;-27
2023/12/07 11:26:21;;;;;;;10.90;7.17;;;;;;;;;;5010083;28;20204;-26
2023/12/07 11:28:49;;;;;;;9.97;7.47;;;;;;;;;;5010491;28;20212;-25
2023/12/07 11:31:17;;;;;;;9.70;6.97;;;;;;;;;;5003205;28;20215;-26
2023/12/07 11:33:45;;;;;;;10.37;7.50;;;;;;;;;;5005276;28;20230;-27
2023/12/07 11:36:13;;;;;;;10.07;6.90;;;;;;;;;;5008599;28;20291;-26
2023/12/07 11:38:57;;;;;;;10.77;7.57;;;;;;;;;;5001791;28;20210;-28
2023/12/07 11:41:24;;;;;;;8.77;6.53;;;;;;;;;;4997668;28;20207;-26
2023/12/07 11:43:55;;;;;;;9.27;7.20;;;;;;;;;;5006213;28;20269;-25
2023/12/07 11:46:24;;;;;;;9.60;7.03;;;;;;;;;;5001301;28;20208;-26
2023/12/07 11:48:51;;;;;;;8.90;6.97;;;;;;;;;;5018809;28;20305;-28
2023/12/07 11:51:20;;;;;;;11.00;7.07;;;;;;;;;;5005063;28;20204;-26
2023/12/07 11:53:48;;;;;;;9.43;6.67;;;;;;;;;;5006763;28;20227;-27
2023/12/07 11:56:20;;;;;;;9.10;7.60;;;;;;;;;;5017968;28;20234;-27
2023/12/07 11:58:47;;;;;;;8.90;6.80;;;;;;;;;;5011399;28;20207;-26
2023/12/07 12:01:14;;;;;;;9.47;6.87;;;;;;;;;;5007977;28;20250;-27
2023/12/07 12:03:41;;;;;;;10.27;6.80;;;;;;;;;;5026394;28;20207;-25
2023/12/07 12:06:10;;;;;;;8.17;6.43;;;;;;;;;;5021014;28;20199;-27
2023/12/07 12:08:39;;;;;;;10.80;7.10;;;;;;;;;;5023891;28;20206;-25
2023/12/07 12:11:20;;;;;;;8.43;6.27;;;;;;;;;;5023634;28;20211;-28
2023/12/07 12:13:49;;;;;;;11.03;6.90;;;;;;;;;;5007383;28;20223;-27
2023/12/07 12:16:16;;;;;;;9.07;6.40;;;;;;;;;;5008483;28;20223;-25
2023/12/07 12:18:44;;;;;;;9.03;6.67;;;;;;;;;;5011632;28;20203;-26
2023/12/07 12:21:11;;;;;;;6.83;5.83;;;;;;;;;;5002329;28;20204;-25
2023/12/07 12:23:40;;;;;;;7.23;5.47;;;;;;;;;;5011537;28;20213;-26
2023/12/07 12:26:15;;;;;;;7.00;5.03;;;;;;;;;;5018095;28;20562;-26
2023/12/07 12:28:43;;;;;;;8.63;5.17;;;;;;;;;;5013773;28;20269;-26
2023/12/07 12:31:11;;;;;;;5.13;3.80;;;;;;;;;;5009152;28;20238;-25
2023/12/07 12:33:38;;;;;;;4.07;3.40;;;;;;;;;;5013588;28;20721;-26
2023/12/07 12:36:06;;;;;;;4.53;3.90;;;;;;;;;;5003248;28;20220;-28
2023/12/07 12:38:33;;;;;;;5.20;3.43;;;;;;;;;;5003670;28;20578;-28
2023/12/07 12:41:03;;;;;;;5.67;3.40;;;;;;;;;;5008659;28;20211;-26
2023/12/07 12:43:30;;;;;;;4.73;3.70;;;;;;;;;;5006722;28;20222;-27
2023/12/07 12:45:58;;;;;;;3.40;2.97;;;;;;;;;;5006659;28;20203;-27
2023/12/07 12:48:25;;;;;;;5.13;2.87;;;;;;;;;;5007046;28;20705;-25
2023/12/07 12:50:52;;;;;;;3.77;3.00;;;;;;;;;;5004937;28;20210;-28
2023/12/07 12:53:20;;;;;;;2.50;2.07;;;;;;;;;;5002580;28;20315;-28
2023/12/07 12:55:47;;;;;;;5.67;2.13;;;;;;;;;;5007500;28;20669;-25
2023/12/07 12:58:17;;;;;;;2.07;1.90;;;;;;;;;;5014409;28;20203;-26
2023/12/07 13:01:17;;;;;;;1.73;1.63;;;;;;;;;;5011096;28;20297;-26
2023/12/07 13:03:45;;;;;;;1.93;1.83;;;;;;;;;;5014801;28;20266;-26
2023/12/07 13:06:14;;;;;;;2.07;1.70;;;;;;;;;;5001731;28;20236;-27
2023/12/07 13:08:41;;;;;;;1.90;1.70;;;;;;;;;;5011233;28;20554;-24
2023/12/07 13:11:08;;;;;;;1.50;1.40;;;;;;;;;;5012568;28;20214;-26
2023/12/07 13:13:37;;;;;;;1.73;1.63;;;;;;;;;;5021287;28;20219;-26
2023/12/07 13:16:04;;;;;;;1.40;1.30;;;;;;;;;;5002564;28;20749;-26
2023/12/07 13:18:31;;;;;;;1.40;1.30;;;;;;;;;;5004541;28;20210;-26
2023/12/07 13:20:59;;;;;;;2.43;1.37;;;;;;;;;;5002937;28;20371;-27
2023/12/07 13:23:26;;;;;;;2.27;1.90;;;;;;;;;;5008212;28;20207;-26
2023/12/07 13:25:54;;;;;;;1.93;1.60;;;;;;;;;;5009468;28;20660;-27
2023/12/07 13:28:22;;;;;;;2.47;2.27;;;;;;;;;;5016932;28;20214;-27
2023/12/07 13:30:51;;;;;;;4.67;2.20;;;;;;;;;;5004639;28;20199;-25
2023/12/07 13:33:18;;;;;;;2.07;1.30;;;;;;;;;;4998612;28;20232;-26
2023/12/07 13:35:45;;;;;;;2.10;1.30;;;;;;;;;;5015089;28;20237;-25
2023/12/07 13:38:13;;;;;;;2.43;1.50;;;;;;;;;;4999168;28;20214;-27
2023/12/07 13:40:40;;;;;;;2.90;1.77;;;;;;;;;;5018470;28;20214;-26
2023/12/07 13:43:09;;;;;;;1.97;1.63;;;;;;;;;;5013111;28;20200;-28
2023/12/07 13:45:46;;;;;;;1.47;1.37;;;;;;;;;;5010215;28;20219;-28
2023/12/07 13:48:15;;;;;;;1.77;1.57;;;;;;;;;;5005359;28;20269;-27
2023/12/07 13:50:42;;;;;;;1.80;1.70;;;;;;;;;;5025992;28;20211;-28
2023/12/07 13:53:10;;;;;;;1.93;1.30;;;;;;;;;;4995363;28;20204;-25
2023/12/07 13:55:37;;;;;;;2.20;1.57;;;;;;;;;;5011028;28;20258;-25
2023/12/07 13:58:04;;;;;;;1.40;1.27;;;;;;;;;;5011405;28;20250;-26
2023/12/07 14:00:31;;;;;;;1.93;1.40;;;;;;;;;;5001781;28;20208;-25
2023/12/07 14:02:58;;;;;;;3.00;1.30;;;;;;;;;;5007893;28;20203;-27
2023/12/07 14:05:27;;;;;;;3.23;1.40;;;;;;;;;;5011971;28;20245;-27
2023/12/07 14:07:54;;;;;;;1.60;1.43;;;;;;;;;;4994570;28;20211;-27
2023/12/07 14:10:22;;;;;;;1.37;1.27;;;;;;;;;;4995912;28;20881;-25
2023/12/07 14:12:49;;;;;;;1.30;1.20;;;;;;;;;;5008443;28;20223;-27
2023/12/07 14:15:16;;;;;;;1.60;1.40;;;;;;;;;;4999763;28;20231;-27
2023/12/07 14:17:43;;;;;;;1.80;1.30;;;;;;;;;;5018292;28;20218;-25
2023/12/07 14:20:11;;;;;;;1.67;1.27;;;;;;;;;;5007442;28;20210;-26
2023/12/07 14:22:40;;;;;;;1.47;1.37;;;;;;;;;;4999370;28;20210;-26
2023/12/07 14:25:08;;;;;;;1.40;1.30;;;;;;;;;;5019793;28;20749;-25
2023/12/07 14:27:35;;;;;;;1.57;1.47;;;;;;;;;;5011913;28;20878;-25
2023/12/07 14:30:03;;;;;;;1.40;1.30;;;;;;;;;;5020490;28;20215;-26
2023/12/07 14:32:30;;;;;;;2.20;1.70;;;;;;;;;;5000394;28;20219;-28
2023/12/07 14:34:57;;;;;;;4.07;1.90;;;;;;;;;;5004365;28;20225;-27
2023/12/07 14:37:24;;;;;;;4.80;1.37;;;;;;;;;;4998506;28;20210;-27
2023/12/07 14:39:53;;;;;;;1.53;1.43;;;;;;;;;;5004802;28;20211;-25
2023/12/07 14:42:20;;;;;;;1.43;1.20;;;;;;;;;;5012048;28;20211;-27
2023/12/07 14:44:48;;;;;;;2.00;1.77;;;;;;;;;;5013670;28;20677;-25